Decoded Metar for VTBD (Don Muang in Thailand) (IATA:DMK) | Meteo·Mobile Aviation Weather
aviador You're here:

VTBD Decoded Metar

Don Muang in Thailand
Report Time2018-12-17 09:00:00
UTC Time2018-12-17 09:26:43
Flight Rules vfr VFR
Wind070° at 08 kt
W.Decomp.*RWY 03: 6.1 kt HW 5.1 kt RCW
W.Rank070° ranks 27
Current wind is above 070° avg. (4.7)
Visibility9999 m
Phenomena:N/A
Clouds:Few 030 Hf
Expected CloudBase > 4,000 ft AGL from Temp-Dew spread
CeilingNone
Temp31°C (ISA +16)
Dew Point21°C (55% RH)
Heat Index33.7°C
QNH1012 hPa
Density Alt2,201 ft
Elevation9 ft
Report Wrong Elevation
Raw Report
METAR VTBD 170900Z 07008KT 030V140 9999 FEW030 31/21 Q1012 NOSIG=

Extra information for VTBD:More info

Metar Taf Metar & Taf Last 4 Metars F.Rules Stats Wind Profile Meteogram Temp Stats Airport Information Weather charts Add Link Nearby VenuesMetar ALERT Operation Metar Decoded Social comments